Time;durP1;ratioP1;P1;durP2;ratioP2;P2;SDS_P1;SDS_P2;PMS_P1;PMS_P2;Temp;Humidity;BMP_temperature;BMP_pressure;BME280_temperature;BME280_humidity;BME280_pressure;Samples;Min_cycle;Max_cycle;Signal;HPM_P1;HPM_P2
2021/09/16 00:01:39;;;;;;;4.87;2.47;;;;;;;;;;5020314;28;20064;-63
2021/09/16 00:04:05;;;;;;;9.40;3.00;;;;;;;;;;5027623;28;20387;-63
2021/09/16 00:06:30;;;;;;;6.07;3.15;;;;;;;;;;5028663;28;20022;-63
2021/09/16 00:08:55;;;;;;;4.35;2.80;;;;;;;;;;5022896;28;20032;-63
2021/09/16 00:11:20;;;;;;;7.05;3.20;;;;;;;;;;5018492;28;20064;-63
2021/09/16 00:13:45;;;;;;;7.18;3.40;;;;;;;;;;5019665;28;20070;-63
2021/09/16 00:16:11;;;;;;;6.75;3.45;;;;;;;;;;5027302;28;20017;-63
2021/09/16 00:18:36;;;;;;;6.75;3.10;;;;;;;;;;5023260;28;20035;-63
2021/09/16 00:21:01;;;;;;;6.57;2.72;;;;;;;;;;5018747;28;20464;-63
2021/09/16 00:23:26;;;;;;;6.20;2.85;;;;;;;;;;5026947;28;20121;-63
2021/09/16 00:25:51;;;;;;;7.60;3.10;;;;;;;;;;5021062;28;20105;-63
2021/09/16 00:28:16;;;;;;;4.10;2.85;;;;;;;;;;5023446;28;20660;-63
2021/09/16 00:30:42;;;;;;;5.97;2.97;;;;;;;;;;5024593;28;20277;-63
2021/09/16 00:33:07;;;;;;;6.97;3.40;;;;;;;;;;5021043;28;20527;-63
2021/09/16 00:35:32;;;;;;;4.00;3.00;;;;;;;;;;5025282;28;20280;-63
2021/09/16 00:37:58;;;;;;;7.40;3.30;;;;;;;;;;5022657;28;20041;-63
2021/09/16 00:40:23;;;;;;;7.55;3.17;;;;;;;;;;5020849;28;20072;-63
2021/09/16 00:42:49;;;;;;;5.93;2.72;;;;;;;;;;5023762;28;20188;-62
2021/09/16 00:45:14;;;;;;;4.47;2.90;;;;;;;;;;5037992;28;20030;-62
2021/09/16 00:47:43;;;;;;;5.75;3.17;;;;;;;;;;5018483;28;20349;-63
2021/09/16 00:50:08;;;;;;;5.80;2.67;;;;;;;;;;5023899;28;20020;-64
2021/09/16 00:52:34;;;;;;;5.03;2.80;;;;;;;;;;5024969;28;20508;-63
2021/09/16 00:55:00;;;;;;;4.85;2.70;;;;;;;;;;5026834;28;20109;-64
2021/09/16 00:57:25;;;;;;;6.68;2.88;;;;;;;;;;5016450;28;20124;-63
2021/09/16 00:59:50;;;;;;;4.90;3.05;;;;;;;;;;5023479;28;20018;-63
2021/09/16 01:02:16;;;;;;;6.45;3.33;;;;;;;;;;5024780;28;20055;-63
2021/09/16 01:04:41;;;;;;;6.45;3.50;;;;;;;;;;5023035;28;20060;-64
2021/09/16 01:07:08;;;;;;;4.77;3.00;;;;;;;;;;5030287;28;20022;-63
2021/09/16 01:09:35;;;;;;;5.43;2.80;;;;;;;;;;5018342;28;20321;-63
2021/09/16 01:12:00;;;;;;;5.18;2.80;;;;;;;;;;5021722;28;20030;-63
2021/09/16 01:14:26;;;;;;;8.83;2.77;;;;;;;;;;5024046;28;20032;-63
2021/09/16 01:16:52;;;;;;;6.95;3.30;;;;;;;;;;5025542;28;20311;-63
2021/09/16 01:19:18;;;;;;;5.90;3.28;;;;;;;;;;5024462;28;20084;-62
2021/09/16 01:21:43;;;;;;;5.72;3.20;;;;;;;;;;5023019;28;20037;-63
2021/09/16 01:24:08;;;;;;;5.68;3.00;;;;;;;;;;5026058;28;20112;-63
2021/09/16 01:26:34;;;;;;;5.05;2.97;;;;;;;;;;5027092;28;20017;-62
2021/09/16 01:28:59;;;;;;;6.67;2.93;;;;;;;;;;5026970;28;20022;-64
2021/09/16 01:31:37;;;;;;;6.43;3.47;;;;;;;;;;5027273;28;20295;-63
2021/09/16 01:34:05;;;;;;;6.53;3.08;;;;;;;;;;5021470;28;20790;-63
2021/09/16 01:36:31;;;;;;;4.75;2.92;;;;;;;;;;5026809;28;20033;-63
2021/09/16 01:38:56;;;;;;;4.80;2.80;;;;;;;;;;5026048;28;20113;-63
2021/09/16 01:41:22;;;;;;;6.65;3.40;;;;;;;;;;5019254;28;20088;-63
2021/09/16 01:43:47;;;;;;;5.73;3.40;;;;;;;;;;5020873;28;20425;-63
2021/09/16 01:46:12;;;;;;;5.30;3.60;;;;;;;;;;5027600;28;20275;-62
2021/09/16 01:48:37;;;;;;;5.70;3.10;;;;;;;;;;5029506;28;20672;-63
2021/09/16 01:51:02;;;;;;;7.43;3.35;;;;;;;;;;5027910;28;20363;-63
2021/09/16 01:53:27;;;;;;;15.18;9.15;;;;;;;;;;5019304;28;20105;-63
2021/09/16 01:55:53;;;;;;;17.83;11.05;;;;;;;;;;5022300;28;20377;-63
2021/09/16 01:58:18;;;;;;;12.13;7.20;;;;;;;;;;5028408;28;20028;-64
2021/09/16 02:00:43;;;;;;;8.85;4.90;;;;;;;;;;5027288;28;20025;-64
2021/09/16 02:03:08;;;;;;;11.77;4.53;;;;;;;;;;5025324;28;20776;-62
2021/09/16 02:05:33;;;;;;;7.30;4.37;;;;;;;;;;5028234;28;20328;-62
2021/09/16 02:07:58;;;;;;;13.73;5.38;;;;;;;;;;5028899;28;20280;-62
2021/09/16 02:10:24;;;;;;;9.13;4.72;;;;;;;;;;5022638;28;20077;-63
2021/09/16 02:12:49;;;;;;;7.97;4.27;;;;;;;;;;5030303;28;20034;-62
2021/09/16 02:15:14;;;;;;;9.10;3.80;;;;;;;;;;5023438;28;20347;-63
2021/09/16 02:17:39;;;;;;;8.70;4.23;;;;;;;;;;5022392;28;20512;-64
2021/09/16 02:20:05;;;;;;;7.65;3.70;;;;;;;;;;5025273;28;20370;-63
2021/09/16 02:22:30;;;;;;;6.13;3.67;;;;;;;;;;5019885;28;20038;-63
2021/09/16 02:24:55;;;;;;;6.17;3.83;;;;;;;;;;5025287;28;20017;-63
2021/09/16 02:27:20;;;;;;;6.53;3.70;;;;;;;;;;5025611;28;20647;-63
2021/09/16 02:29:45;;;;;;;7.95;4.03;;;;;;;;;;5025706;28;20268;-62
2021/09/16 02:32:10;;;;;;;8.87;3.87;;;;;;;;;;5019396;28;20048;-63
2021/09/16 02:34:36;;;;;;;7.10;3.47;;;;;;;;;;5019093;28;20285;-63
2021/09/16 02:37:01;;;;;;;6.97;3.55;;;;;;;;;;5040265;28;20033;-63
2021/09/16 02:39:26;;;;;;;6.03;3.27;;;;;;;;;;5026637;28;20059;-63
2021/09/16 02:41:51;;;;;;;8.63;3.83;;;;;;;;;;5028401;28;20388;-63
2021/09/16 02:44:16;;;;;;;6.53;3.60;;;;;;;;;;5026123;28;20870;-64
2021/09/16 02:46:41;;;;;;;5.00;3.37;;;;;;;;;;5025043;28;20355;-63
2021/09/16 02:49:07;;;;;;;4.22;2.78;;;;;;;;;;5022833;28;20268;-63
2021/09/16 02:51:32;;;;;;;5.63;3.20;;;;;;;;;;5028767;28;20029;-63
2021/09/16 02:53:57;;;;;;;6.10;3.97;;;;;;;;;;5028145;28;20148;-63
2021/09/16 02:56:22;;;;;;;6.05;3.22;;;;;;;;;;5022859;28;20275;-64
2021/09/16 02:58:47;;;;;;;8.87;3.00;;;;;;;;;;5021764;28;20018;-63
2021/09/16 03:01:13;;;;;;;4.85;2.97;;;;;;;;;;5020978;28;20268;-63
2021/09/16 03:03:38;;;;;;;7.43;3.58;;;;;;;;;;5026916;28;20555;-63
2021/09/16 03:06:03;;;;;;;4.72;3.22;;;;;;;;;;5028611;28;20025;-63
2021/09/16 03:08:28;;;;;;;6.00;3.33;;;;;;;;;;5024254;28;20280;-63
2021/09/16 03:10:53;;;;;;;6.40;3.58;;;;;;;;;;5026030;28;20056;-63
2021/09/16 03:13:18;;;;;;;5.25;3.40;;;;;;;;;;5025297;28;20069;-63
2021/09/16 03:15:44;;;;;;;5.83;3.60;;;;;;;;;;5021705;28;20389;-64
2021/09/16 03:18:09;;;;;;;6.35;3.67;;;;;;;;;;5024396;28;20288;-63
2021/09/16 03:20:34;;;;;;;5.43;3.27;;;;;;;;;;5026462;28;20076;-63
2021/09/16 03:22:59;;;;;;;6.50;3.87;;;;;;;;;;5025082;28;20312;-63
2021/09/16 03:25:25;;;;;;;5.32;3.40;;;;;;;;;;5041258;28;20296;-64
2021/09/16 03:27:50;;;;;;;5.30;3.10;;;;;;;;;;5021673;28;20366;-63
2021/09/16 03:30:15;;;;;;;7.20;3.60;;;;;;;;;;5019918;28;20391;-64
2021/09/16 03:32:41;;;;;;;9.20;3.88;;;;;;;;;;5023092;28;20933;-63
2021/09/16 03:35:06;;;;;;;5.47;3.35;;;;;;;;;;5025603;28;20070;-62
2021/09/16 03:37:32;;;;;;;6.22;3.50;;;;;;;;;;5023100;28;20049;-63
2021/09/16 03:39:57;;;;;;;5.67;3.80;;;;;;;;;;5024633;28;20097;-63
2021/09/16 03:42:22;;;;;;;6.68;3.70;;;;;;;;;;5021163;28;20383;-63
2021/09/16 03:44:47;;;;;;;6.90;3.47;;;;;;;;;;5025319;28;20465;-64
2021/09/16 03:47:14;;;;;;;5.80;3.55;;;;;;;;;;5023960;28;20020;-63
2021/09/16 03:49:39;;;;;;;7.10;3.50;;;;;;;;;;5022703;28;20057;-64
2021/09/16 03:52:08;;;;;;;6.97;3.30;;;;;;;;;;5020045;28;20041;-63
2021/09/16 03:54:34;;;;;;;5.28;3.20;;;;;;;;;;5016446;28;20279;-63
2021/09/16 03:56:59;;;;;;;7.10;3.42;;;;;;;;;;5023338;28;20469;-63
2021/09/16 03:59:24;;;;;;;5.55;2.95;;;;;;;;;;5023513;28;20026;-64
2021/09/16 04:01:49;;;;;;;7.32;3.17;;;;;;;;;;5019274;28;20120;-63
2021/09/16 04:04:14;;;;;;;4.75;3.30;;;;;;;;;;5021308;28;20022;-64
2021/09/16 04:06:40;;;;;;;6.50;3.13;;;;;;;;;;5028868;28;20030;-63
2021/09/16 04:09:05;;;;;;;7.15;3.30;;;;;;;;;;5024966;28;20358;-63
2021/09/16 04:11:30;;;;;;;5.25;3.10;;;;;;;;;;5027478;28;20426;-63
2021/09/16 04:13:55;;;;;;;6.03;2.95;;;;;;;;;;5020994;28;20035;-63
2021/09/16 04:16:20;;;;;;;7.40;3.40;;;;;;;;;;5017118;28;20022;-63
2021/09/16 04:18:46;;;;;;;5.82;3.88;;;;;;;;;;5023823;28;20339;-63
2021/09/16 04:21:11;;;;;;;6.80;3.50;;;;;;;;;;5023295;28;20025;-64
2021/09/16 04:23:36;;;;;;;6.80;3.42;;;;;;;;;;5021640;28;20399;-64
2021/09/16 04:26:01;;;;;;;8.30;3.53;;;;;;;;;;5017403;28;20026;-63
2021/09/16 04:28:26;;;;;;;6.47;3.78;;;;;;;;;;5022259;28;20448;-63
2021/09/16 04:30:51;;;;;;;6.23;3.80;;;;;;;;;;5030330;28;20049;-63
2021/09/16 04:33:16;;;;;;;7.57;3.60;;;;;;;;;;5020903;28;20807;-63
2021/09/16 04:35:42;;;;;;;9.20;3.40;;;;;;;;;;5027482;28;20313;-64
2021/09/16 04:38:07;;;;;;;5.77;3.60;;;;;;;;;;5024319;28;20756;-64
2021/09/16 04:40:32;;;;;;;11.30;4.10;;;;;;;;;;5028463;28;20272;-63
2021/09/16 04:42:57;;;;;;;6.35;3.40;;;;;;;;;;5026818;28;20053;-64
2021/09/16 04:45:22;;;;;;;6.38;3.72;;;;;;;;;;5028816;28;20043;-64
2021/09/16 04:47:47;;;;;;;7.67;3.40;;;;;;;;;;5027013;28;20129;-63
2021/09/16 04:50:13;;;;;;;5.63;3.37;;;;;;;;;;5023987;28;20272;-64
2021/09/16 04:52:38;;;;;;;7.93;3.75;;;;;;;;;;5022745;28;20443;-64
2021/09/16 04:55:04;;;;;;;7.70;3.80;;;;;;;;;;5028080;28;20484;-64
2021/09/16 04:57:29;;;;;;;6.55;3.22;;;;;;;;;;5025672;28;20110;-62
2021/09/16 04:59:55;;;;;;;8.52;3.60;;;;;;;;;;5023920;28;20362;-60
2021/09/16 05:02:20;;;;;;;8.00;3.60;;;;;;;;;;5026781;28;20489;-62
2021/09/16 05:04:45;;;;;;;8.17;4.00;;;;;;;;;;5025734;28;20025;-62
2021/09/16 05:07:10;;;;;;;7.80;3.83;;;;;;;;;;5024281;28;20698;-62
2021/09/16 05:09:35;;;;;;;6.63;2.87;;;;;;;;;;5027166;28;20272;-62
2021/09/16 05:12:00;;;;;;;7.13;3.70;;;;;;;;;;5027525;28;20805;-62
2021/09/16 05:14:26;;;;;;;7.75;3.88;;;;;;;;;;5022506;28;20065;-63
2021/09/16 05:16:51;;;;;;;8.80;3.78;;;;;;;;;;5042997;28;20048;-62
2021/09/16 05:19:16;;;;;;;6.87;3.80;;;;;;;;;;5025329;28;20037;-64
2021/09/16 05:21:41;;;;;;;7.45;3.72;;;;;;;;;;5027458;28;20359;-63
2021/09/16 05:24:06;;;;;;;7.00;3.58;;;;;;;;;;5027446;28;20272;-63
2021/09/16 05:26:32;;;;;;;7.38;4.15;;;;;;;;;;5026627;28;20088;-62
2021/09/16 05:28:57;;;;;;;8.57;3.53;;;;;;;;;;5025689;28;20022;-62
2021/09/16 05:31:22;;;;;;;7.97;4.20;;;;;;;;;;5028293;28;20634;-62
2021/09/16 05:33:47;;;;;;;9.93;3.73;;;;;;;;;;5028240;28;20299;-62
2021/09/16 05:36:12;;;;;;;5.90;3.65;;;;;;;;;;5022052;28;20679;-62
2021/09/16 05:38:37;;;;;;;8.55;4.25;;;;;;;;;;5024833;28;20596;-62
2021/09/16 05:41:03;;;;;;;7.13;3.83;;;;;;;;;;5022566;28;20061;-61
2021/09/16 05:43:28;;;;;;;6.50;3.50;;;;;;;;;;5025385;28;20766;-62
2021/09/16 05:45:54;;;;;;;11.27;4.15;;;;;;;;;;5029118;28;20044;-62
2021/09/16 05:48:20;;;;;;;7.18;3.53;;;;;;;;;;5030140;28;20029;-61
2021/09/16 05:50:46;;;;;;;5.97;3.20;;;;;;;;;;5027181;28;20022;-61
2021/09/16 05:53:11;;;;;;;5.85;2.75;;;;;;;;;;5029074;28;20083;-61
2021/09/16 05:55:39;;;;;;;5.45;2.95;;;;;;;;;;5028452;28;20073;-61
2021/09/16 05:58:05;;;;;;;5.03;2.75;;;;;;;;;;5027529;28;20033;-62
2021/09/16 06:00:30;;;;;;;5.70;2.80;;;;;;;;;;5027462;28;20538;-62
2021/09/16 06:02:55;;;;;;;6.53;3.00;;;;;;;;;;5028827;28;20033;-62
2021/09/16 06:05:20;;;;;;;5.37;3.27;;;;;;;;;;5028234;28;20021;-62
2021/09/16 06:07:45;;;;;;;5.47;2.97;;;;;;;;;;5023629;28;20381;-61
2021/09/16 06:10:11;;;;;;;4.80;3.10;;;;;;;;;;5019641;28;20280;-62
2021/09/16 06:12:36;;;;;;;5.85;3.33;;;;;;;;;;5027300;28;20743;-63
2021/09/16 06:15:02;;;;;;;6.30;3.10;;;;;;;;;;5029895;28;20527;-62
2021/09/16 06:17:27;;;;;;;5.72;3.28;;;;;;;;;;5027927;28;20033;-62
2021/09/16 06:19:52;;;;;;;5.73;3.07;;;;;;;;;;5040050;28;20399;-61
2021/09/16 06:22:18;;;;;;;5.95;3.08;;;;;;;;;;5025711;28;20307;-61
2021/09/16 06:24:43;;;;;;;7.50;3.08;;;;;;;;;;5027154;28;20531;-62
2021/09/16 06:27:08;;;;;;;6.97;2.60;;;;;;;;;;5044453;28;20038;-62
2021/09/16 06:29:34;;;;;;;6.10;3.00;;;;;;;;;;5028890;28;20320;-61
2021/09/16 06:31:59;;;;;;;7.75;2.90;;;;;;;;;;5020692;28;20493;-62
2021/09/16 06:34:25;;;;;;;6.30;2.90;;;;;;;;;;5025048;28;20041;-62
2021/09/16 06:36:50;;;;;;;9.32;3.08;;;;;;;;;;5028550;28;20021;-62
2021/09/16 06:39:16;;;;;;;5.70;3.30;;;;;;;;;;5022292;28;20025;-61
2021/09/16 06:41:41;;;;;;;6.03;3.13;;;;;;;;;;5024357;28;20281;-61
2021/09/16 06:44:06;;;;;;;7.87;3.13;;;;;;;;;;5024954;28;21255;-62
2021/09/16 06:46:31;;;;;;;7.85;2.88;;;;;;;;;;5028808;28;20275;-62
2021/09/16 06:48:56;;;;;;;9.27;2.80;;;;;;;;;;5028658;28;20059;-62
2021/09/16 06:51:22;;;;;;;5.15;3.17;;;;;;;;;;5023151;28;20132;-62
2021/09/16 06:53:47;;;;;;;5.18;2.88;;;;;;;;;;5029344;28;20144;-62
2021/09/16 06:56:12;;;;;;;5.85;2.85;;;;;;;;;;5027422;28;20021;-61
2021/09/16 06:58:37;;;;;;;5.70;2.57;;;;;;;;;;5027514;28;20635;-61
2021/09/16 07:01:02;;;;;;;4.20;2.80;;;;;;;;;;5028332;28;20307;-60
2021/09/16 07:03:27;;;;;;;5.73;2.83;;;;;;;;;;5028311;28;20022;-61
2021/09/16 07:05:53;;;;;;;6.32;2.80;;;;;;;;;;5024581;28;20276;-61
2021/09/16 07:08:18;;;;;;;5.72;3.55;;;;;;;;;;5029344;28;20021;-61
2021/09/16 07:10:43;;;;;;;6.37;2.67;;;;;;;;;;5029295;28;20488;-62
2021/09/16 07:13:08;;;;;;;4.60;2.20;;;;;;;;;;5022438;28;20379;-61
2021/09/16 07:15:33;;;;;;;7.50;2.33;;;;;;;;;;5029144;28;20282;-61
2021/09/16 07:18:00;;;;;;;5.05;2.50;;;;;;;;;;5023516;28;20304;-61
2021/09/16 07:20:25;;;;;;;4.38;2.67;;;;;;;;;;5029060;28;20526;-63
2021/09/16 07:22:50;;;;;;;5.10;2.70;;;;;;;;;;5024940;28;20041;-62
2021/09/16 07:25:15;;;;;;;4.05;2.33;;;;;;;;;;5029079;28;20313;-62
2021/09/16 07:27:40;;;;;;;5.03;2.80;;;;;;;;;;5025248;28;20189;-61
2021/09/16 07:30:06;;;;;;;6.23;2.40;;;;;;;;;;5020729;28;20295;-61
2021/09/16 07:32:31;;;;;;;6.38;2.38;;;;;;;;;;5028628;28;20782;-61
2021/09/16 07:34:57;;;;;;;6.35;2.30;;;;;;;;;;5029661;28;20464;-62
2021/09/16 07:37:22;;;;;;;4.68;2.40;;;;;;;;;;5025504;28;20064;-61
2021/09/16 07:39:47;;;;;;;7.82;2.50;;;;;;;;;;5023671;28;20527;-63
2021/09/16 07:42:13;;;;;;;5.97;2.50;;;;;;;;;;5021737;28;20042;-62
2021/09/16 07:44:38;;;;;;;5.65;2.70;;;;;;;;;;5029259;28;20318;-61
2021/09/16 07:47:03;;;;;;;5.10;2.42;;;;;;;;;;5027717;28;20021;-61
2021/09/16 07:49:28;;;;;;;7.72;3.10;;;;;;;;;;5028730;28;20037;-61
2021/09/16 07:51:54;;;;;;;6.57;2.90;;;;;;;;;;5028510;28;20029;-59
2021/09/16 07:54:19;;;;;;;6.13;2.50;;;;;;;;;;5028976;28;20029;-61
2021/09/16 07:56:44;;;;;;;9.87;2.90;;;;;;;;;;5028146;28;20315;-62
2021/09/16 07:59:09;;;;;;;6.95;2.90;;;;;;;;;;5027359;28;20268;-61
2021/09/16 08:01:35;;;;;;;6.78;2.75;;;;;;;;;;5023878;28;20018;-62
2021/09/16 08:04:01;;;;;;;8.43;3.45;;;;;;;;;;5024384;28;20601;-62
2021/09/16 08:06:26;;;;;;;4.70;3.03;;;;;;;;;;5028255;28;20151;-62
2021/09/16 08:08:51;;;;;;;7.50;3.17;;;;;;;;;;5027978;28;20018;-62
2021/09/16 08:11:16;;;;;;;5.73;3.60;;;;;;;;;;5026257;28;20276;-60
2021/09/16 08:13:41;;;;;;;6.35;2.95;;;;;;;;;;5025882;28;21261;-62
2021/09/16 08:16:07;;;;;;;9.32;3.70;;;;;;;;;;5027098;28;20017;-61
2021/09/16 08:18:32;;;;;;;7.35;3.70;;;;;;;;;;5028215;28;20025;-62
2021/09/16 08:20:57;;;;;;;6.60;3.97;;;;;;;;;;5023930;28;20053;-63
2021/09/16 08:23:22;;;;;;;7.30;3.58;;;;;;;;;;5028009;28;20731;-62
2021/09/16 08:25:48;;;;;;;6.90;3.30;;;;;;;;;;5027229;28;20021;-62
2021/09/16 08:28:13;;;;;;;7.80;3.78;;;;;;;;;;5027911;28;20037;-62
2021/09/16 08:30:39;;;;;;;7.10;3.38;;;;;;;;;;5025587;28;20017;-62
2021/09/16 08:33:05;;;;;;;6.47;3.42;;;;;;;;;;5023740;28;20056;-62
2021/09/16 08:35:30;;;;;;;8.25;3.85;;;;;;;;;;5026462;28;20021;-61
2021/09/16 08:37:55;;;;;;;4.53;3.25;;;;;;;;;;5010587;28;20052;-61
2021/09/16 08:40:22;;;;;;;8.93;3.67;;;;;;;;;;5025164;28;20029;-62
2021/09/16 08:42:48;;;;;;;6.90;3.90;;;;;;;;;;5020988;28;20403;-61
2021/09/16 08:45:15;;;;;;;8.55;3.58;;;;;;;;;;5021904;28;20116;-61
2021/09/16 08:47:43;;;;;;;7.85;3.38;;;;;;;;;;5026193;28;20033;-62
2021/09/16 08:50:09;;;;;;;6.82;3.42;;;;;;;;;;5024550;28;20026;-62
2021/09/16 08:52:37;;;;;;;7.15;3.58;;;;;;;;;;5022174;28;20071;-61
2021/09/16 08:55:08;;;;;;;4.93;3.17;;;;;;;;;;5026778;28;20032;-62
2021/09/16 08:57:35;;;;;;;8.05;3.40;;;;;;;;;;5021831;28;20021;-62
2021/09/16 09:00:00;;;;;;;6.97;3.20;;;;;;;;;;5021764;28;20487;-62
2021/09/16 09:02:26;;;;;;;6.30;3.25;;;;;;;;;;5027119;28;20175;-63
2021/09/16 09:04:54;;;;;;;5.72;3.55;;;;;;;;;;5026708;28;20025;-62
2021/09/16 09:07:19;;;;;;;5.88;2.97;;;;;;;;;;5022018;28;20036;-62
2021/09/16 09:09:45;;;;;;;6.55;3.60;;;;;;;;;;5023430;28;20026;-61
2021/09/16 09:12:11;;;;;;;5.53;3.47;;;;;;;;;;5026403;28;20022;-62
2021/09/16 09:14:38;;;;;;;5.32;3.25;;;;;;;;;;5030458;28;20117;-62
2021/09/16 09:17:14;;;;;;;4.80;2.88;;;;;;;;;;5029546;28;20044;-62
2021/09/16 09:19:40;;;;;;;6.53;3.00;;;;;;;;;;5029497;28;20152;-62
2021/09/16 09:22:06;;;;;;;5.43;2.92;;;;;;;;;;5029224;28;20025;-62
2021/09/16 09:24:33;;;;;;;4.40;3.08;;;;;;;;;;5027481;28;20029;-61
2021/09/16 09:27:02;;;;;;;6.47;2.65;;;;;;;;;;5031403;28;20029;-61
2021/09/16 09:29:28;;;;;;;7.63;2.67;;;;;;;;;;5027347;28;20032;-61
2021/09/16 09:31:59;;;;;;;5.78;2.95;;;;;;;;;;5024984;28;20035;-62
2021/09/16 09:34:25;;;;;;;4.45;2.40;;;;;;;;;;5030994;28;20106;-62
2021/09/16 09:36:50;;;;;;;6.10;2.63;;;;;;;;;;5023925;28;20072;-63
2021/09/16 09:39:23;;;;;;;5.57;2.63;;;;;;;;;;5027759;28;20458;-61
2021/09/16 09:41:48;;;;;;;5.47;2.40;;;;;;;;;;5030938;28;20113;-61
2021/09/16 09:44:14;;;;;;;5.13;2.70;;;;;;;;;;5030238;28;20496;-61
2021/09/16 09:46:39;;;;;;;6.00;3.03;;;;;;;;;;5020719;28;20283;-61
2021/09/16 09:49:05;;;;;;;5.95;3.28;;;;;;;;;;5025901;28;20024;-60
2021/09/16 09:51:38;;;;;;;5.60;2.78;;;;;;;;;;5030696;28;20084;-62
2021/09/16 09:54:24;;;;;;;9.32;3.10;;;;;;;;;;5028895;28;20029;-62
2021/09/16 09:57:07;;;;;;;4.85;2.70;;;;;;;;;;5024674;28;20037;-62
2021/09/16 09:59:51;;;;;;;6.15;3.35;;;;;;;;;;5029380;28;20056;-62
2021/09/16 10:02:16;;;;;;;7.18;3.00;;;;;;;;;;5029210;28;20021;-62
2021/09/16 10:04:42;;;;;;;4.97;3.10;;;;;;;;;;5030135;28;20025;-62
2021/09/16 10:07:07;;;;;;;5.97;3.10;;;;;;;;;;5026201;28;20104;-62
2021/09/16 10:09:32;;;;;;;6.55;3.55;;;;;;;;;;5022258;28;20037;-62
2021/09/16 10:11:58;;;;;;;6.78;3.38;;;;;;;;;;5029079;28;20099;-61
2021/09/16 10:14:23;;;;;;;6.47;3.25;;;;;;;;;;5026070;28;20072;-62
2021/09/16 10:16:49;;;;;;;7.45;3.42;;;;;;;;;;5023744;28;20028;-63
2021/09/16 10:19:14;;;;;;;5.47;3.50;;;;;;;;;;5026414;28;20028;-63
2021/09/16 10:21:39;;;;;;;5.32;3.13;;;;;;;;;;5030468;28;20325;-63
2021/09/16 10:24:05;;;;;;;5.20;3.15;;;;;;;;;;5029183;28;20110;-61
2021/09/16 10:26:35;;;;;;;7.32;3.53;;;;;;;;;;5043020;28;20148;-61
2021/09/16 10:29:00;;;;;;;5.90;3.42;;;;;;;;;;5027586;28;20480;-61
2021/09/16 10:31:26;;;;;;;7.50;3.60;;;;;;;;;;5030366;28;20028;-64
2021/09/16 10:33:51;;;;;;;10.05;3.78;;;;;;;;;;5029028;28;20034;-63
2021/09/16 10:36:17;;;;;;;5.53;3.38;;;;;;;;;;5029068;28;20036;-62
2021/09/16 10:38:50;;;;;;;9.52;3.55;;;;;;;;;;5026390;28;20112;-62
2021/09/16 10:41:15;;;;;;;6.68;3.40;;;;;;;;;;5023121;28;20517;-61
2021/09/16 10:43:42;;;;;;;8.15;3.67;;;;;;;;;;5027375;28;20047;-63
2021/09/16 10:46:26;;;;;;;5.90;3.53;;;;;;;;;;5028205;28;20021;-62
2021/09/16 10:48:52;;;;;;;11.15;3.60;;;;;;;;;;5027242;28;20082;-62
2021/09/16 10:51:36;;;;;;;6.45;3.60;;;;;;;;;;5025560;28;20034;-62
2021/09/16 10:54:01;;;;;;;5.97;3.17;;;;;;;;;;5037877;28;20033;-61
2021/09/16 10:56:26;;;;;;;5.70;3.33;;;;;;;;;;5028982;28;20026;-61
2021/09/16 10:58:55;;;;;;;7.90;3.85;;;;;;;;;;5024508;28;20073;-62
2021/09/16 11:01:39;;;;;;;6.67;3.90;;;;;;;;;;5022722;28;20105;-62
2021/09/16 11:04:04;;;;;;;6.63;4.22;;;;;;;;;;5029245;28;20029;-62
2021/09/16 11:06:43;;;;;;;6.38;3.80;;;;;;;;;;5025867;28;20037;-62
2021/09/16 11:09:08;;;;;;;6.60;3.40;;;;;;;;;;5029627;28;20522;-62
2021/09/16 11:11:49;;;;;;;8.10;4.18;;;;;;;;;;5027821;28;20025;-62
2021/09/16 11:14:50;;;;;;;8.57;4.00;;;;;;;;;;5023074;28;20041;-62
2021/09/16 11:17:25;;;;;;;10.13;4.20;;;;;;;;;;5007234;28;20029;-62
2021/09/16 11:19:50;;;;;;;6.18;3.97;;;;;;;;;;5007125;28;20064;-62
2021/09/16 11:22:22;;;;;;;8.87;4.33;;;;;;;;;;5002594;28;20033;-62
2021/09/16 11:24:47;;;;;;;8.35;3.92;;;;;;;;;;5006785;28;20261;-62
2021/09/16 11:27:21;;;;;;;10.50;4.53;;;;;;;;;;5006480;28;20052;-62
2021/09/16 11:29:47;;;;;;;9.35;4.80;;;;;;;;;;5000572;28;20137;-61
2021/09/16 11:32:13;;;;;;;11.02;4.68;;;;;;;;;;5005088;28;20644;-62
2021/09/16 11:34:58;;;;;;;10.68;4.65;;;;;;;;;;4999293;28;20069;-61
2021/09/16 11:37:32;;;;;;;9.57;4.35;;;;;;;;;;5006100;28;20123;-62
2021/09/16 11:39:59;;;;;;;6.72;3.88;;;;;;;;;;4997477;28;20022;-62
2021/09/16 11:42:24;;;;;;;7.40;4.80;;;;;;;;;;4995084;28;20107;-62
2021/09/16 11:44:53;;;;;;;6.57;3.70;;;;;;;;;;4994545;28;20038;-62
2021/09/16 11:47:19;;;;;;;8.77;4.32;;;;;;;;;;4995670;28;20025;-62
2021/09/16 11:49:44;;;;;;;8.05;3.92;;;;;;;;;;4995486;28;20030;-61
2021/09/16 11:52:09;;;;;;;7.75;4.13;;;;;;;;;;5020185;28;20082;-61
2021/09/16 11:54:34;;;;;;;6.30;4.10;;;;;;;;;;5020355;28;20033;-62
2021/09/16 11:57:02;;;;;;;9.05;3.80;;;;;;;;;;5027546;28;20355;-62
2021/09/16 11:59:28;;;;;;;9.38;4.50;;;;;;;;;;5028435;28;20083;-61
2021/09/16 12:01:56;;;;;;;7.20;3.77;;;;;;;;;;5024851;28;20060;-62
2021/09/16 12:04:37;;;;;;;7.03;3.88;;;;;;;;;;5025868;28;20272;-61
2021/09/16 12:07:02;;;;;;;6.68;3.95;;;;;;;;;;5020618;28;20053;-62
2021/09/16 12:09:27;;;;;;;9.60;4.10;;;;;;;;;;5026593;28;20026;-62
2021/09/16 12:11:59;;;;;;;9.07;4.00;;;;;;;;;;5028573;28;20021;-62
2021/09/16 12:14:24;;;;;;;9.82;4.65;;;;;;;;;;5024519;28;20699;-61
2021/09/16 12:16:49;;;;;;;7.93;4.07;;;;;;;;;;5027788;28;20026;-61
2021/09/16 12:19:15;;;;;;;7.07;3.80;;;;;;;;;;5020814;28;20029;-61
2021/09/16 12:21:45;;;;;;;7.05;3.72;;;;;;;;;;5026179;28;20021;-61
2021/09/16 12:24:11;;;;;;;5.38;3.15;;;;;;;;;;5017045;28;20018;-62
2021/09/16 12:26:38;;;;;;;5.65;3.33;;;;;;;;;;5019735;28;20026;-61
2021/09/16 12:29:06;;;;;;;7.22;3.13;;;;;;;;;;5021867;28;20055;-62
2021/09/16 12:31:38;;;;;;;6.05;2.75;;;;;;;;;;5016145;28;20109;-62
2021/09/16 12:34:06;;;;;;;4.93;2.88;;;;;;;;;;5015701;28;20030;-61
2021/09/16 12:36:33;;;;;;;5.45;2.58;;;;;;;;;;5023991;28;20014;-61
2021/09/16 12:39:01;;;;;;;7.30;3.90;;;;;;;;;;5019775;28;20470;-61
2021/09/16 12:41:30;;;;;;;4.82;2.60;;;;;;;;;;5022117;28;20532;-62
2021/09/16 12:44:00;;;;;;;6.18;3.10;;;;;;;;;;5028353;28;20025;-61
2021/09/16 12:46:25;;;;;;;;;;;;;;;;;;5030188;28;20409;-62
2021/09/16 12:48:51;;;;;;;5.85;2.70;;;;;;;;;;5024321;28;20274;-61
2021/09/16 12:51:18;;;;;;;6.43;2.80;;;;;;;;;;5026094;28;20055;-61
2021/09/16 12:53:43;;;;;;;5.00;2.83;;;;;;;;;;5018157;28;20057;-61
2021/09/16 12:56:09;;;;;;;5.15;2.65;;;;;;;;;;5024109;28;20060;-60
2021/09/16 12:58:35;;;;;;;4.65;2.88;;;;;;;;;;5019160;28;20032;-61
2021/09/16 13:01:06;;;;;;;4.68;2.50;;;;;;;;;;5018564;28;20350;-61
2021/09/16 13:03:31;;;;;;;5.47;2.42;;;;;;;;;;5026641;28;20389;-62
2021/09/16 13:06:15;;;;;;;5.25;2.30;;;;;;;;;;5022631;28;20073;-61
2021/09/16 13:08:43;;;;;;;4.72;2.00;;;;;;;;;;5020610;28;20041;-62
2021/09/16 13:11:22;;;;;;;4.63;1.87;;;;;;;;;;5014337;28;20087;-61
2021/09/16 13:14:03;;;;;;;6.50;2.47;;;;;;;;;;5025320;28;20030;-61
2021/09/16 13:16:29;;;;;;;3.53;1.83;;;;;;;;;;5019468;28;20029;-60
2021/09/16 13:18:54;;;;;;;6.32;2.30;;;;;;;;;;5019569;28;20116;-61
2021/09/16 13:21:20;;;;;;;5.33;2.70;;;;;;;;;;5019783;28;20438;-62
2021/09/16 13:23:45;;;;;;;5.13;2.42;;;;;;;;;;5022382;28;20300;-60
2021/09/16 13:26:10;;;;;;;4.07;2.20;;;;;;;;;;5015830;28;20741;-61
2021/09/16 13:28:35;;;;;;;5.57;2.00;;;;;;;;;;5023754;28;20261;-61
2021/09/16 13:31:00;;;;;;;2.63;1.90;;;;;;;;;;5023643;28;20391;-61
2021/09/16 13:33:26;;;;;;;3.92;1.83;;;;;;;;;;5018035;28;20288;-60
2021/09/16 13:35:51;;;;;;;5.10;2.28;;;;;;;;;;5029917;28;20018;-61
2021/09/16 13:38:16;;;;;;;5.00;2.10;;;;;;;;;;5021167;28;20101;-61
2021/09/16 13:40:42;;;;;;;5.67;2.00;;;;;;;;;;5022710;28;20603;-61
2021/09/16 13:43:08;;;;;;;3.53;1.92;;;;;;;;;;5018972;28;20380;-61
2021/09/16 13:45:33;;;;;;;5.05;1.63;;;;;;;;;;5020311;28;20024;-61
2021/09/16 13:47:58;;;;;;;4.82;2.15;;;;;;;;;;5020602;28;20026;-61
2021/09/16 13:50:24;;;;;;;5.90;2.00;;;;;;;;;;5022650;28;20017;-60
2021/09/16 13:52:49;;;;;;;4.13;1.83;;;;;;;;;;5021380;28;20288;-61
2021/09/16 13:55:14;;;;;;;4.93;1.80;;;;;;;;;;5020526;28;20014;-61
2021/09/16 13:57:41;;;;;;;3.38;2.05;;;;;;;;;;5023857;28;20308;-62
2021/09/16 14:00:07;;;;;;;5.43;2.15;;;;;;;;;;5020408;28;20044;-61
2021/09/16 14:02:32;;;;;;;5.07;1.88;;;;;;;;;;5018049;28;20031;-61
2021/09/16 14:04:58;;;;;;;3.88;1.67;;;;;;;;;;5019965;28;20061;-61
2021/09/16 14:07:23;;;;;;;5.20;1.87;;;;;;;;;;5018390;28;20230;-61
2021/09/16 14:09:48;;;;;;;3.77;1.60;;;;;;;;;;5019764;28;20284;-62
2021/09/16 14:12:13;;;;;;;4.00;1.67;;;;;;;;;;5027908;28;20843;-62
2021/09/16 14:14:39;;;;;;;4.07;1.85;;;;;;;;;;5025194;28;20350;-62
2021/09/16 14:17:04;;;;;;;3.20;1.70;;;;;;;;;;5027380;28;20044;-61
2021/09/16 14:19:30;;;;;;;2.88;1.65;;;;;;;;;;5025215;28;20379;-61
2021/09/16 14:21:55;;;;;;;5.78;1.90;;;;;;;;;;5028655;28;20018;-62
2021/09/16 14:24:20;;;;;;;4.85;2.15;;;;;;;;;;5027080;28;20021;-61
2021/09/16 14:26:46;;;;;;;3.95;2.00;;;;;;;;;;5022459;28;20021;-61
2021/09/16 14:29:11;;;;;;;2.63;1.73;;;;;;;;;;5028177;28;20033;-60
2021/09/16 14:31:36;;;;;;;3.78;1.80;;;;;;;;;;5028015;28;20021;-61
2021/09/16 14:34:01;;;;;;;4.30;1.77;;;;;;;;;;5030608;28;20056;-61
2021/09/16 14:36:27;;;;;;;3.38;1.70;;;;;;;;;;5030130;28;20256;-61
2021/09/16 14:38:52;;;;;;;2.75;1.55;;;;;;;;;;5030000;28;20388;-63